sensor_id;sensor_type;location;lat;lon;timestamp;temperature;humidity
10133;DHT22;5106;50.926;7.080;2022-11-20T00:00:09;3.90;84.00
10133;DHT22;5106;50.926;7.080;2022-11-20T00:02:35;3.90;83.60
10133;DHT22;5106;50.926;7.080;2022-11-20T00:05:01;3.90;83.30
10133;DHT22;5106;50.926;7.080;2022-11-20T00:07:26;4.00;83.50
10133;DHT22;5106;50.926;7.080;2022-11-20T00:09:52;4.00;83.60
10133;DHT22;5106;50.926;7.080;2022-11-20T00:12:17;4.00;83.50
10133;DHT22;5106;50.926;7.080;2022-11-20T00:14:43;4.00;83.20
10133;DHT22;5106;50.926;7.080;2022-11-20T00:17:08;4.00;83.10
10133;DHT22;5106;50.926;7.080;2022-11-20T00:19:34;4.00;83.30
10133;DHT22;5106;50.926;7.080;2022-11-20T00:22:00;3.90;83.50
10133;DHT22;5106;50.926;7.080;2022-11-20T00:24:25;3.90;83.60
10133;DHT22;5106;50.926;7.080;2022-11-20T00:26:51;3.90;83.60
10133;DHT22;5106;50.926;7.080;2022-11-20T00:29:16;3.90;83.60
10133;DHT22;5106;50.926;7.080;2022-11-20T00:31:42;3.80;83.70
10133;DHT22;5106;50.926;7.080;2022-11-20T00:34:09;3.80;83.60
10133;DHT22;5106;50.926;7.080;2022-11-20T00:36:35;3.80;83.60
10133;DHT22;5106;50.926;7.080;2022-11-20T00:39:00;3.90;83.50
10133;DHT22;5106;50.926;7.080;2022-11-20T00:41:27;3.90;83.60
10133;DHT22;5106;50.926;7.080;2022-11-20T00:43:54;3.90;83.60
10133;DHT22;5106;50.926;7.080;2022-11-20T00:46:22;3.90;83.60
10133;DHT22;5106;50.926;7.080;2022-11-20T00:48:48;3.90;83.90
10133;DHT22;5106;50.926;7.080;2022-11-20T00:51:16;3.90;84.00
10133;DHT22;5106;50.926;7.080;2022-11-20T00:53:42;3.90;83.80
10133;DHT22;5106;50.926;7.080;2022-11-20T00:56:11;3.90;83.40
10133;DHT22;5106;50.926;7.080;2022-11-20T00:58:39;3.90;83.30
10133;DHT22;5106;50.926;7.080;2022-11-20T01:01:14;3.90;83.10
10133;DHT22;5106;50.926;7.080;2022-11-20T01:03:41;4.00;83.10
10133;DHT22;5106;50.926;7.080;2022-11-20T01:06:32;4.00;82.90
10133;DHT22;5106;50.926;7.080;2022-11-20T01:08:59;4.00;82.90
10133;DHT22;5106;50.926;7.080;2022-11-20T01:11:28;4.00;83.00
10133;DHT22;5106;50.926;7.080;2022-11-20T01:13:54;4.00;83.10
10133;DHT22;5106;50.926;7.080;2022-11-20T01:16:26;4.00;82.80
10133;DHT22;5106;50.926;7.080;2022-11-20T01:18:54;3.90;82.80
10133;DHT22;5106;50.926;7.080;2022-11-20T01:21:23;3.90;83.20
10133;DHT22;5106;50.926;7.080;2022-11-20T01:23:50;3.90;83.40
10133;DHT22;5106;50.926;7.080;2022-11-20T01:26:20;3.90;83.30
10133;DHT22;5106;50.926;7.080;2022-11-20T01:28:46;3.90;83.40
10133;DHT22;5106;50.926;7.080;2022-11-20T01:31:24;3.90;83.40
10133;DHT22;5106;50.926;7.080;2022-11-20T01:33:53;3.90;83.20
10133;DHT22;5106;50.926;7.080;2022-11-20T01:36:20;3.90;83.30
10133;DHT22;5106;50.926;7.080;2022-11-20T01:38:46;3.80;83.30
10133;DHT22;5106;50.926;7.080;2022-11-20T01:41:13;3.80;83.40
10133;DHT22;5106;50.926;7.080;2022-11-20T01:43:59;3.80;83.60
10133;DHT22;5106;50.926;7.080;2022-11-20T01:46:25;3.80;83.30
10133;DHT22;5106;50.926;7.080;2022-11-20T01:48:57;3.80;83.30
10133;DHT22;5106;50.926;7.080;2022-11-20T01:51:37;3.80;83.00
10133;DHT22;5106;50.926;7.080;2022-11-20T01:54:07;3.80;82.80
10133;DHT22;5106;50.926;7.080;2022-11-20T01:56:37;3.80;82.80
10133;DHT22;5106;50.926;7.080;2022-11-20T01:59:05;3.80;82.90
10133;DHT22;5106;50.926;7.080;2022-11-20T02:01:33;3.80;82.90
10133;DHT22;5106;50.926;7.080;2022-11-20T02:03:59;3.80;82.90
10133;DHT22;5106;50.926;7.080;2022-11-20T02:06:32;3.80;83.00
10133;DHT22;5106;50.926;7.080;2022-11-20T02:09:00;3.80;83.10
10133;DHT22;5106;50.926;7.080;2022-11-20T02:11:26;3.80;83.30
10133;DHT22;5106;50.926;7.080;2022-11-20T02:13:51;3.80;82.90
10133;DHT22;5106;50.926;7.080;2022-11-20T02:18:46;3.80;82.80
10133;DHT22;5106;50.926;7.080;2022-11-20T02:24:04;3.80;83.00
10133;DHT22;5106;50.926;7.080;2022-11-20T02:26:33;3.80;83.00
10133;DHT22;5106;50.926;7.080;2022-11-20T02:29:01;3.80;83.10
10133;DHT22;5106;50.926;7.080;2022-11-20T02:31:27;3.80;83.30
10133;DHT22;5106;50.926;7.080;2022-11-20T02:33:57;3.80;83.20
10133;DHT22;5106;50.926;7.080;2022-11-20T02:36:25;3.80;83.10
10133;DHT22;5106;50.926;7.080;2022-11-20T02:38:51;3.80;82.80
10133;DHT22;5106;50.926;7.080;2022-11-20T02:41:17;3.80;82.70
10133;DHT22;5106;50.926;7.080;2022-11-20T02:43:43;3.80;82.90
10133;DHT22;5106;50.926;7.080;2022-11-20T02:46:08;3.80;83.30
10133;DHT22;5106;50.926;7.080;2022-11-20T02:48:34;3.70;83.20
10133;DHT22;5106;50.926;7.080;2022-11-20T02:51:00;3.70;83.40
10133;DHT22;5106;50.926;7.080;2022-11-20T02:53:25;3.70;83.50
10133;DHT22;5106;50.926;7.080;2022-11-20T02:55:51;3.70;83.60
10133;DHT22;5106;50.926;7.080;2022-11-20T02:58:17;3.70;83.70
10133;DHT22;5106;50.926;7.080;2022-11-20T03:00:42;3.80;83.50
10133;DHT22;5106;50.926;7.080;2022-11-20T03:03:08;3.80;83.50
10133;DHT22;5106;50.926;7.080;2022-11-20T03:05:33;3.80;83.60
10133;DHT22;5106;50.926;7.080;2022-11-20T03:07:59;3.80;83.40
10133;DHT22;5106;50.926;7.080;2022-11-20T03:10:25;3.80;83.00
10133;DHT22;5106;50.926;7.080;2022-11-20T03:12:56;3.80;83.20
10133;DHT22;5106;50.926;7.080;2022-11-20T03:15:25;3.80;83.20
10133;DHT22;5106;50.926;7.080;2022-11-20T03:17:54;3.80;83.30
10133;DHT22;5106;50.926;7.080;2022-11-20T03:20:20;3.70;83.60
10133;DHT22;5106;50.926;7.080;2022-11-20T03:22:46;3.70;83.70
10133;DHT22;5106;50.926;7.080;2022-11-20T03:25:11;3.70;83.60
10133;DHT22;5106;50.926;7.080;2022-11-20T03:27:37;3.70;83.50
10133;DHT22;5106;50.926;7.080;2022-11-20T03:30:03;3.70;83.50
10133;DHT22;5106;50.926;7.080;2022-11-20T03:32:29;3.70;83.60
10133;DHT22;5106;50.926;7.080;2022-11-20T03:34:54;3.70;83.70
10133;DHT22;5106;50.926;7.080;2022-11-20T03:37:20;3.60;83.70
10133;DHT22;5106;50.926;7.080;2022-11-20T03:39:46;3.60;83.70
10133;DHT22;5106;50.926;7.080;2022-11-20T03:42:11;3.60;83.70
10133;DHT22;5106;50.926;7.080;2022-11-20T03:44:55;3.60;83.80
10133;DHT22;5106;50.926;7.080;2022-11-20T03:47:21;3.60;83.70
10133;DHT22;5106;50.926;7.080;2022-11-20T03:49:46;3.60;84.00
10133;DHT22;5106;50.926;7.080;2022-11-20T03:52:12;3.60;84.00
10133;DHT22;5106;50.926;7.080;2022-11-20T03:54:38;3.60;84.20
10133;DHT22;5106;50.926;7.080;2022-11-20T03:57:03;3.60;84.30
10133;DHT22;5106;50.926;7.080;2022-11-20T03:59:29;3.60;84.30
10133;DHT22;5106;50.926;7.080;2022-11-20T04:01:54;3.60;84.10
10133;DHT22;5106;50.926;7.080;2022-11-20T04:04:20;3.60;84.00
10133;DHT22;5106;50.926;7.080;2022-11-20T04:06:46;3.60;84.10
10133;DHT22;5106;50.926;7.080;2022-11-20T04:09:11;3.60;84.20
10133;DHT22;5106;50.926;7.080;2022-11-20T04:11:39;3.60;84.10
10133;DHT22;5106;50.926;7.080;2022-11-20T04:14:06;3.60;84.10
10133;DHT22;5106;50.926;7.080;2022-11-20T04:16:37;3.60;84.10
10133;DHT22;5106;50.926;7.080;2022-11-20T04:19:04;3.60;84.20
10133;DHT22;5106;50.926;7.080;2022-11-20T04:21:30;3.60;84.40
10133;DHT22;5106;50.926;7.080;2022-11-20T04:23:57;3.60;84.50
10133;DHT22;5106;50.926;7.080;2022-11-20T04:26:24;3.60;84.60
10133;DHT22;5106;50.926;7.080;2022-11-20T04:28:50;3.60;84.70
10133;DHT22;5106;50.926;7.080;2022-11-20T04:31:18;3.60;84.70
10133;DHT22;5106;50.926;7.080;2022-11-20T04:33:44;3.60;84.70
10133;DHT22;5106;50.926;7.080;2022-11-20T04:36:26;3.60;84.80
10133;DHT22;5106;50.926;7.080;2022-11-20T04:38:54;3.60;84.80
10133;DHT22;5106;50.926;7.080;2022-11-20T04:41:22;3.60;84.80
10133;DHT22;5106;50.926;7.080;2022-11-20T04:43:49;3.60;84.60
10133;DHT22;5106;50.926;7.080;2022-11-20T04:46:16;3.60;84.50
10133;DHT22;5106;50.926;7.080;2022-11-20T04:48:42;3.50;84.50
10133;DHT22;5106;50.926;7.080;2022-11-20T04:51:07;3.50;84.20
10133;DHT22;5106;50.926;7.080;2022-11-20T04:53:33;3.50;84.40
10133;DHT22;5106;50.926;7.080;2022-11-20T04:56:04;3.40;84.70
10133;DHT22;5106;50.926;7.080;2022-11-20T04:58:30;3.40;84.90
10133;DHT22;5106;50.926;7.080;2022-11-20T05:01:14;3.40;84.80
10133;DHT22;5106;50.926;7.080;2022-11-20T05:03:40;3.40;84.90
10133;DHT22;5106;50.926;7.080;2022-11-20T05:06:07;3.30;84.70
10133;DHT22;5106;50.926;7.080;2022-11-20T05:08:33;3.10;84.80
10133;DHT22;5106;50.926;7.080;2022-11-20T05:13:34;3.10;85.40
10133;DHT22;5106;50.926;7.080;2022-11-20T05:16:08;3.10;85.60
10133;DHT22;5106;50.926;7.080;2022-11-20T05:18:35;3.10;85.70
10133;DHT22;5106;50.926;7.080;2022-11-20T05:21:01;3.10;86.00
10133;DHT22;5106;50.926;7.080;2022-11-20T05:23:28;3.10;85.90
10133;DHT22;5106;50.926;7.080;2022-11-20T05:25:55;3.10;86.10
10133;DHT22;5106;50.926;7.080;2022-11-20T05:28:22;3.10;86.30
10133;DHT22;5106;50.926;7.080;2022-11-20T05:30:48;3.10;86.30
10133;DHT22;5106;50.926;7.080;2022-11-20T05:33:14;3.20;86.30
10133;DHT22;5106;50.926;7.080;2022-11-20T05:35:39;3.20;86.10
10133;DHT22;5106;50.926;7.080;2022-11-20T05:38:05;3.30;86.00
10133;DHT22;5106;50.926;7.080;2022-11-20T05:40:30;3.30;85.90
10133;DHT22;5106;50.926;7.080;2022-11-20T05:42:56;3.30;86.00
10133;DHT22;5106;50.926;7.080;2022-11-20T05:45:21;3.30;85.90
10133;DHT22;5106;50.926;7.080;2022-11-20T05:47:47;3.30;86.00
10133;DHT22;5106;50.926;7.080;2022-11-20T05:50:13;3.30;85.80
10133;DHT22;5106;50.926;7.080;2022-11-20T05:52:40;3.40;85.80
10133;DHT22;5106;50.926;7.080;2022-11-20T05:55:06;3.40;85.90
10133;DHT22;5106;50.926;7.080;2022-11-20T05:57:32;3.40;85.90
10133;DHT22;5106;50.926;7.080;2022-11-20T05:59:58;3.30;85.80
10133;DHT22;5106;50.926;7.080;2022-11-20T06:02:24;3.40;86.00
10133;DHT22;5106;50.926;7.080;2022-11-20T06:04:49;3.40;85.90
10133;DHT22;5106;50.926;7.080;2022-11-20T06:07:15;3.40;86.10
10133;DHT22;5106;50.926;7.080;2022-11-20T06:09:40;3.40;86.10
10133;DHT22;5106;50.926;7.080;2022-11-20T06:12:06;3.40;86.20
10133;DHT22;5106;50.926;7.080;2022-11-20T06:14:32;3.40;86.20
10133;DHT22;5106;50.926;7.080;2022-11-20T06:16:58;3.40;86.30
10133;DHT22;5106;50.926;7.080;2022-11-20T06:19:24;3.40;86.30
10133;DHT22;5106;50.926;7.080;2022-11-20T06:21:49;3.50;86.30
10133;DHT22;5106;50.926;7.080;2022-11-20T06:24:16;3.50;86.20
10133;DHT22;5106;50.926;7.080;2022-11-20T06:26:41;3.50;86.20
10133;DHT22;5106;50.926;7.080;2022-11-20T06:29:07;3.50;86.30
10133;DHT22;5106;50.926;7.080;2022-11-20T06:31:32;3.50;86.20
10133;DHT22;5106;50.926;7.080;2022-11-20T06:34:00;3.50;86.20
10133;DHT22;5106;50.926;7.080;2022-11-20T06:36:26;3.50;86.10
10133;DHT22;5106;50.926;7.080;2022-11-20T06:38:52;3.60;85.90
10133;DHT22;5106;50.926;7.080;2022-11-20T06:41:21;3.60;85.90
10133;DHT22;5106;50.926;7.080;2022-11-20T06:43:47;3.60;85.90
10133;DHT22;5106;50.926;7.080;2022-11-20T06:46:14;3.60;85.80
10133;DHT22;5106;50.926;7.080;2022-11-20T06:48:40;3.60;85.50
10133;DHT22;5106;50.926;7.080;2022-11-20T06:51:06;3.60;85.40
10133;DHT22;5106;50.926;7.080;2022-11-20T06:53:33;3.60;85.70
10133;DHT22;5106;50.926;7.080;2022-11-20T06:55:59;3.60;85.80
10133;DHT22;5106;50.926;7.080;2022-11-20T06:58:27;3.60;85.70
10133;DHT22;5106;50.926;7.080;2022-11-20T07:00:57;3.60;85.60
10133;DHT22;5106;50.926;7.080;2022-11-20T07:03:22;3.60;85.50
10133;DHT22;5106;50.926;7.080;2022-11-20T07:05:48;3.60;85.60
10133;DHT22;5106;50.926;7.080;2022-11-20T07:08:14;3.60;85.40
10133;DHT22;5106;50.926;7.080;2022-11-20T07:10:39;3.60;85.50
10133;DHT22;5106;50.926;7.080;2022-11-20T07:13:05;3.60;85.60
10133;DHT22;5106;50.926;7.080;2022-11-20T07:15:32;3.60;85.70
10133;DHT22;5106;50.926;7.080;2022-11-20T07:18:00;3.60;85.60
10133;DHT22;5106;50.926;7.080;2022-11-20T07:20:27;3.60;85.50
10133;DHT22;5106;50.926;7.080;2022-11-20T07:22:54;3.60;85.50
10133;DHT22;5106;50.926;7.080;2022-11-20T07:25:20;3.60;85.60
10133;DHT22;5106;50.926;7.080;2022-11-20T07:27:45;3.60;85.70
10133;DHT22;5106;50.926;7.080;2022-11-20T07:30:11;3.60;85.70
10133;DHT22;5106;50.926;7.080;2022-11-20T07:32:37;3.60;85.70
10133;DHT22;5106;50.926;7.080;2022-11-20T07:35:03;3.60;85.70
10133;DHT22;5106;50.926;7.080;2022-11-20T07:37:29;3.60;85.70
10133;DHT22;5106;50.926;7.080;2022-11-20T07:39:54;3.60;85.70
10133;DHT22;5106;50.926;7.080;2022-11-20T07:42:20;3.60;85.80
10133;DHT22;5106;50.926;7.080;2022-11-20T07:44:45;3.60;85.90
10133;DHT22;5106;50.926;7.080;2022-11-20T07:47:11;3.60;86.00
10133;DHT22;5106;50.926;7.080;2022-11-20T07:49:36;3.60;85.90
10133;DHT22;5106;50.926;7.080;2022-11-20T07:52:02;3.60;85.90
10133;DHT22;5106;50.926;7.080;2022-11-20T07:54:28;3.70;85.90
10133;DHT22;5106;50.926;7.080;2022-11-20T07:56:54;3.70;85.70
10133;DHT22;5106;50.926;7.080;2022-11-20T07:59:19;3.70;85.70
10133;DHT22;5106;50.926;7.080;2022-11-20T08:01:45;3.70;85.80
10133;DHT22;5106;50.926;7.080;2022-11-20T08:04:10;3.70;85.80
10133;DHT22;5106;50.926;7.080;2022-11-20T08:06:36;3.70;85.70
10133;DHT22;5106;50.926;7.080;2022-11-20T08:09:02;3.70;85.70
10133;DHT22;5106;50.926;7.080;2022-11-20T08:11:28;3.80;85.90
10133;DHT22;5106;50.926;7.080;2022-11-20T08:14:12;3.90;85.80
10133;DHT22;5106;50.926;7.080;2022-11-20T08:16:48;3.90;85.60
10133;DHT22;5106;50.926;7.080;2022-11-20T08:19:16;3.90;85.60
10133;DHT22;5106;50.926;7.080;2022-11-20T08:21:43;3.90;85.70
10133;DHT22;5106;50.926;7.080;2022-11-20T08:24:09;3.90;85.80
10133;DHT22;5106;50.926;7.080;2022-11-20T08:26:36;4.00;85.80
10133;DHT22;5106;50.926;7.080;2022-11-20T08:29:03;4.00;85.70
10133;DHT22;5106;50.926;7.080;2022-11-20T08:31:29;4.10;85.70
10133;DHT22;5106;50.926;7.080;2022-11-20T08:33:55;4.10;85.70
10133;DHT22;5106;50.926;7.080;2022-11-20T08:36:22;4.10;85.60
10133;DHT22;5106;50.926;7.080;2022-11-20T08:38:52;4.20;85.50
10133;DHT22;5106;50.926;7.080;2022-11-20T08:41:19;4.20;85.50
10133;DHT22;5106;50.926;7.080;2022-11-20T08:44:03;4.20;85.50
10133;DHT22;5106;50.926;7.080;2022-11-20T08:46:39;4.30;85.50
10133;DHT22;5106;50.926;7.080;2022-11-20T08:49:08;4.30;85.30
10133;DHT22;5106;50.926;7.080;2022-11-20T08:51:35;4.40;85.20
10133;DHT22;5106;50.926;7.080;2022-11-20T08:54:01;4.40;85.10
10133;DHT22;5106;50.926;7.080;2022-11-20T08:56:27;4.50;85.00
10133;DHT22;5106;50.926;7.080;2022-11-20T08:58:52;4.50;85.00
10133;DHT22;5106;50.926;7.080;2022-11-20T09:01:19;4.60;84.90
10133;DHT22;5106;50.926;7.080;2022-11-20T09:03:45;4.60;84.70
10133;DHT22;5106;50.926;7.080;2022-11-20T09:06:11;4.60;84.70
10133;DHT22;5106;50.926;7.080;2022-11-20T09:08:36;4.70;84.70
10133;DHT22;5106;50.926;7.080;2022-11-20T09:11:03;4.70;84.50
10133;DHT22;5106;50.926;7.080;2022-11-20T09:13:30;4.70;84.40
10133;DHT22;5106;50.926;7.080;2022-11-20T09:16:01;4.80;84.60
10133;DHT22;5106;50.926;7.080;2022-11-20T09:18:28;4.80;84.60
10133;DHT22;5106;50.926;7.080;2022-11-20T09:21:00;4.80;84.30
10133;DHT22;5106;50.926;7.080;2022-11-20T09:23:27;4.80;84.30
10133;DHT22;5106;50.926;7.080;2022-11-20T09:25:56;4.80;84.10
10133;DHT22;5106;50.926;7.080;2022-11-20T09:28:25;4.80;84.30
10133;DHT22;5106;50.926;7.080;2022-11-20T09:30:50;4.80;84.30
10133;DHT22;5106;50.926;7.080;2022-11-20T09:33:16;4.80;84.20
10133;DHT22;5106;50.926;7.080;2022-11-20T09:35:43;4.90;83.90
10133;DHT22;5106;50.926;7.080;2022-11-20T09:38:09;4.90;83.90
10133;DHT22;5106;50.926;7.080;2022-11-20T09:40:39;4.90;84.00
10133;DHT22;5106;50.926;7.080;2022-11-20T09:43:21;4.90;84.00
10133;DHT22;5106;50.926;7.080;2022-11-20T09:46:07;5.00;84.00
10133;DHT22;5106;50.926;7.080;2022-11-20T09:51:23;5.00;83.70
10133;DHT22;5106;50.926;7.080;2022-11-20T09:56:26;5.10;83.60
10133;DHT22;5106;50.926;7.080;2022-11-20T09:58:59;5.20;83.80
10133;DHT22;5106;50.926;7.080;2022-11-20T10:01:35;5.30;83.50
10133;DHT22;5106;50.926;7.080;2022-11-20T10:04:10;5.30;83.30
10133;DHT22;5106;50.926;7.080;2022-11-20T10:06:47;5.40;83.00
10133;DHT22;5106;50.926;7.080;2022-11-20T10:09:33;5.40;82.80
10133;DHT22;5106;50.926;7.080;2022-11-20T10:12:13;5.40;82.80
10133;DHT22;5106;50.926;7.080;2022-11-20T10:18:15;5.50;82.70
10133;DHT22;5106;50.926;7.080;2022-11-20T10:21:13;5.50;82.40
10133;DHT22;5106;50.926;7.080;2022-11-20T10:26:21;5.50;82.50
10133;DHT22;5106;50.926;7.080;2022-11-20T10:31:40;5.50;82.70
10133;DHT22;5106;50.926;7.080;2022-11-20T10:34:27;5.40;82.50
10133;DHT22;5106;50.926;7.080;2022-11-20T10:37:04;5.40;82.60
10133;DHT22;5106;50.926;7.080;2022-11-20T10:42:43;5.30;82.50
10133;DHT22;5106;50.926;7.080;2022-11-20T10:48:11;5.40;82.90
10133;DHT22;5106;50.926;7.080;2022-11-20T10:50:49;5.40;82.90
10133;DHT22;5106;50.926;7.080;2022-11-20T11:01:42;5.60;82.80
10133;DHT22;5106;50.926;7.080;2022-11-20T11:04:42;5.60;82.60
10133;DHT22;5106;50.926;7.080;2022-11-20T11:07:10;5.60;82.90
10133;DHT22;5106;50.926;7.080;2022-11-20T11:09:42;5.60;82.90
10133;DHT22;5106;50.926;7.080;2022-11-20T11:12:09;5.70;82.80
10133;DHT22;5106;50.926;7.080;2022-11-20T11:14:52;5.70;83.00
10133;DHT22;5106;50.926;7.080;2022-11-20T11:17:45;5.60;82.80
10133;DHT22;5106;50.926;7.080;2022-11-20T11:20:15;5.60;83.00
10133;DHT22;5106;50.926;7.080;2022-11-20T11:22:48;5.60;82.90
10133;DHT22;5106;50.926;7.080;2022-11-20T11:25:40;5.60;83.00
10133;DHT22;5106;50.926;7.080;2022-11-20T11:30:44;5.60;83.20
10133;DHT22;5106;50.926;7.080;2022-11-20T11:33:18;5.60;83.20
10133;DHT22;5106;50.926;7.080;2022-11-20T11:35:47;5.60;83.30
10133;DHT22;5106;50.926;7.080;2022-11-20T11:38:16;5.70;83.20
10133;DHT22;5106;50.926;7.080;2022-11-20T11:40:44;5.70;83.20
10133;DHT22;5106;50.926;7.080;2022-11-20T11:43:20;5.70;83.00
10133;DHT22;5106;50.926;7.080;2022-11-20T11:46:25;5.70;82.90
10133;DHT22;5106;50.926;7.080;2022-11-20T11:57:16;5.70;83.10
10133;DHT22;5106;50.926;7.080;2022-11-20T12:03:10;5.70;83.00
10133;DHT22;5106;50.926;7.080;2022-11-20T12:08:37;5.80;83.10
10133;DHT22;5106;50.926;7.080;2022-11-20T12:14:09;5.80;83.10
10133;DHT22;5106;50.926;7.080;2022-11-20T12:16:39;5.80;83.30
10133;DHT22;5106;50.926;7.080;2022-11-20T12:19:11;5.80;83.30
10133;DHT22;5106;50.926;7.080;2022-11-20T12:27:05;5.80;83.00
10133;DHT22;5106;50.926;7.080;2022-11-20T12:30:00;5.80;83.00
10133;DHT22;5106;50.926;7.080;2022-11-20T12:41:27;5.80;83.00
10133;DHT22;5106;50.926;7.080;2022-11-20T12:50:46;5.80;83.10
10133;DHT22;5106;50.926;7.080;2022-11-20T13:07:51;6.00;83.20
10133;DHT22;5106;50.926;7.080;2022-11-20T13:10:38;6.10;83.10
10133;DHT22;5106;50.926;7.080;2022-11-20T13:13:28;6.10;83.10
10133;DHT22;5106;50.926;7.080;2022-11-20T13:16:05;6.20;83.00
10133;DHT22;5106;50.926;7.080;2022-11-20T13:18:38;6.20;82.90
10133;DHT22;5106;50.926;7.080;2022-11-20T13:21:18;6.30;83.00
10133;DHT22;5106;50.926;7.080;2022-11-20T13:23:45;6.30;83.10
10133;DHT22;5106;50.926;7.080;2022-11-20T13:26:17;6.40;82.90
10133;DHT22;5106;50.926;7.080;2022-11-20T13:28:46;6.40;82.50
10133;DHT22;5106;50.926;7.080;2022-11-20T13:31:32;6.40;82.50
10133;DHT22;5106;50.926;7.080;2022-11-20T13:33:59;6.50;82.80
10133;DHT22;5106;50.926;7.080;2022-11-20T13:36:27;6.50;82.60
10133;DHT22;5106;50.926;7.080;2022-11-20T13:38:55;6.50;82.40
10133;DHT22;5106;50.926;7.080;2022-11-20T13:41:36;6.50;82.40
10133;DHT22;5106;50.926;7.080;2022-11-20T13:46:42;6.50;82.20
10133;DHT22;5106;50.926;7.080;2022-11-20T13:49:15;6.50;82.20
10133;DHT22;5106;50.926;7.080;2022-11-20T13:51:50;6.50;82.20
10133;DHT22;5106;50.926;7.080;2022-11-20T13:59:57;6.40;82.50
10133;DHT22;5106;50.926;7.080;2022-11-20T14:02:26;6.40;82.70
10133;DHT22;5106;50.926;7.080;2022-11-20T14:04:54;6.40;83.00
10133;DHT22;5106;50.926;7.080;2022-11-20T14:07:24;6.40;82.90
10133;DHT22;5106;50.926;7.080;2022-11-20T14:09:56;6.40;82.90
10133;DHT22;5106;50.926;7.080;2022-11-20T14:12:33;6.40;83.10
10133;DHT22;5106;50.926;7.080;2022-11-20T14:14:59;6.40;83.30
10133;DHT22;5106;50.926;7.080;2022-11-20T14:17:33;6.40;83.30
10133;DHT22;5106;50.926;7.080;2022-11-20T14:20:11;6.40;83.30
10133;DHT22;5106;50.926;7.080;2022-11-20T14:22:37;6.30;83.40
10133;DHT22;5106;50.926;7.080;2022-11-20T14:27:39;6.30;83.50
10133;DHT22;5106;50.926;7.080;2022-11-20T14:30:12;6.30;83.60
10133;DHT22;5106;50.926;7.080;2022-11-20T14:32:38;6.30;83.70
10133;DHT22;5106;50.926;7.080;2022-11-20T14:35:08;6.30;83.80
10133;DHT22;5106;50.926;7.080;2022-11-20T14:37:37;6.30;83.90
10133;DHT22;5106;50.926;7.080;2022-11-20T14:40:23;6.30;84.00
10133;DHT22;5106;50.926;7.080;2022-11-20T14:42:49;6.30;84.00
10133;DHT22;5106;50.926;7.080;2022-11-20T14:45:15;6.30;84.10
10133;DHT22;5106;50.926;7.080;2022-11-20T14:47:41;6.30;84.10
10133;DHT22;5106;50.926;7.080;2022-11-20T14:50:21;6.30;84.30
10133;DHT22;5106;50.926;7.080;2022-11-20T14:52:55;6.30;84.30
10133;DHT22;5106;50.926;7.080;2022-11-20T14:55:31;6.30;84.30
10133;DHT22;5106;50.926;7.080;2022-11-20T14:58:00;6.30;84.30
10133;DHT22;5106;50.926;7.080;2022-11-20T15:00:27;6.30;84.30
10133;DHT22;5106;50.926;7.080;2022-11-20T15:02:53;6.30;84.40
10133;DHT22;5106;50.926;7.080;2022-11-20T15:05:21;6.30;84.50
10133;DHT22;5106;50.926;7.080;2022-11-20T15:08:05;6.30;84.50
10133;DHT22;5106;50.926;7.080;2022-11-20T15:10:31;6.30;84.70
10133;DHT22;5106;50.926;7.080;2022-11-20T15:13:02;6.30;84.60
10133;DHT22;5106;50.926;7.080;2022-11-20T15:15:47;6.30;84.60
10133;DHT22;5106;50.926;7.080;2022-11-20T15:18:15;6.30;84.60
10133;DHT22;5106;50.926;7.080;2022-11-20T15:20:41;6.30;84.60
10133;DHT22;5106;50.926;7.080;2022-11-20T15:23:13;6.30;84.70
10133;DHT22;5106;50.926;7.080;2022-11-20T15:25:39;6.30;84.70
10133;DHT22;5106;50.926;7.080;2022-11-20T15:30:46;6.20;85.10
10133;DHT22;5106;50.926;7.080;2022-11-20T15:33:12;6.20;85.30
10133;DHT22;5106;50.926;7.080;2022-11-20T15:35:38;6.20;85.70
10133;DHT22;5106;50.926;7.080;2022-11-20T15:38:04;6.20;86.00
10133;DHT22;5106;50.926;7.080;2022-11-20T15:40:30;6.10;86.20
10133;DHT22;5106;50.926;7.080;2022-11-20T15:42:56;6.10;86.40
10133;DHT22;5106;50.926;7.080;2022-11-20T15:45:46;6.00;86.60
10133;DHT22;5106;50.926;7.080;2022-11-20T15:48:19;6.00;86.80
10133;DHT22;5106;50.926;7.080;2022-11-20T15:53:37;5.90;87.10
10133;DHT22;5106;50.926;7.080;2022-11-20T15:56:03;5.90;87.20
10133;DHT22;5106;50.926;7.080;2022-11-20T15:58:29;5.90;87.30
10133;DHT22;5106;50.926;7.080;2022-11-20T16:00:55;5.90;87.40
10133;DHT22;5106;50.926;7.080;2022-11-20T16:03:21;5.90;87.50
10133;DHT22;5106;50.926;7.080;2022-11-20T16:05:46;5.90;87.50
10133;DHT22;5106;50.926;7.080;2022-11-20T16:08:12;5.90;87.60
10133;DHT22;5106;50.926;7.080;2022-11-20T16:10:38;5.80;87.60
10133;DHT22;5106;50.926;7.080;2022-11-20T16:13:04;5.80;87.70
10133;DHT22;5106;50.926;7.080;2022-11-20T16:15:56;5.80;87.80
10133;DHT22;5106;50.926;7.080;2022-11-20T16:18:22;5.80;87.90
10133;DHT22;5106;50.926;7.080;2022-11-20T16:20:50;5.90;87.90
10133;DHT22;5106;50.926;7.080;2022-11-20T16:23:16;5.90;87.90
10133;DHT22;5106;50.926;7.080;2022-11-20T16:25:42;5.90;88.00
10133;DHT22;5106;50.926;7.080;2022-11-20T16:28:09;5.90;88.00
10133;DHT22;5106;50.926;7.080;2022-11-20T16:30:34;5.90;88.10
10133;DHT22;5106;50.926;7.080;2022-11-20T16:33:01;5.90;88.10
10133;DHT22;5106;50.926;7.080;2022-11-20T16:35:28;5.90;88.20
10133;DHT22;5106;50.926;7.080;2022-11-20T16:37:55;5.90;88.20
10133;DHT22;5106;50.926;7.080;2022-11-20T16:40:21;5.90;88.20
10133;DHT22;5106;50.926;7.080;2022-11-20T16:42:47;6.00;88.20
10133;DHT22;5106;50.926;7.080;2022-11-20T16:45:14;6.00;88.30
10133;DHT22;5106;50.926;7.080;2022-11-20T16:47:40;6.00;88.30
10133;DHT22;5106;50.926;7.080;2022-11-20T16:50:06;6.00;88.30
10133;DHT22;5106;50.926;7.080;2022-11-20T16:52:32;6.00;88.30
10133;DHT22;5106;50.926;7.080;2022-11-20T16:54:58;6.00;88.40
10133;DHT22;5106;50.926;7.080;2022-11-20T16:57:25;6.00;88.40
10133;DHT22;5106;50.926;7.080;2022-11-20T16:59:52;6.00;88.50
10133;DHT22;5106;50.926;7.080;2022-11-20T17:02:17;6.00;88.60
10133;DHT22;5106;50.926;7.080;2022-11-20T17:04:43;6.00;88.60
10133;DHT22;5106;50.926;7.080;2022-11-20T17:07:08;6.00;88.60
10133;DHT22;5106;50.926;7.080;2022-11-20T17:09:34;6.00;88.70
10133;DHT22;5106;50.926;7.080;2022-11-20T17:12:00;6.00;88.70
10133;DHT22;5106;50.926;7.080;2022-11-20T17:14:25;6.10;88.80
10133;DHT22;5106;50.926;7.080;2022-11-20T17:16:51;6.00;88.80
10133;DHT22;5106;50.926;7.080;2022-11-20T17:19:16;6.00;88.80
10133;DHT22;5106;50.926;7.080;2022-11-20T17:21:42;6.00;88.80
10133;DHT22;5106;50.926;7.080;2022-11-20T17:24:10;6.00;88.90
10133;DHT22;5106;50.926;7.080;2022-11-20T17:26:37;6.00;88.90
10133;DHT22;5106;50.926;7.080;2022-11-20T17:29:11;6.00;89.00
10133;DHT22;5106;50.926;7.080;2022-11-20T17:31:37;6.00;89.00
10133;DHT22;5106;50.926;7.080;2022-11-20T17:34:04;6.00;89.10
10133;DHT22;5106;50.926;7.080;2022-11-20T17:36:31;6.00;89.10
10133;DHT22;5106;50.926;7.080;2022-11-20T17:38:57;6.00;89.20
10133;DHT22;5106;50.926;7.080;2022-11-20T17:41:24;6.00;89.20
10133;DHT22;5106;50.926;7.080;2022-11-20T17:43:53;6.00;89.20
10133;DHT22;5106;50.926;7.080;2022-11-20T17:46:21;6.00;89.20
10133;DHT22;5106;50.926;7.080;2022-11-20T17:48:48;6.00;89.20
10133;DHT22;5106;50.926;7.080;2022-11-20T17:51:16;6.00;89.20
10133;DHT22;5106;50.926;7.080;2022-11-20T17:53:44;6.00;89.30
10133;DHT22;5106;50.926;7.080;2022-11-20T17:56:10;6.00;89.40
10133;DHT22;5106;50.926;7.080;2022-11-20T17:58:55;6.00;89.40
10133;DHT22;5106;50.926;7.080;2022-11-20T18:01:21;6.10;89.50